Flight Track Log - Related Links

Times and Time Zones

All times are in EDT time to prevent confusion due to time zone crossing. See the WJA129 flight status page for this flight to view local times or setup timezone preferences in your user account.

Time Position Orientation Groundspeed Altitude Reporting Facility
EDT Latitude Longitude Course Direction KTS MPH feet Rate Location/Type
Tue 09:36:34 PM 50.4000 -104.6667 285° West 70 81 2,500  Level Winnipeg Center
Tue 09:37:34 PM 50.3667 -104.6000 128° Southeast 180 207 4,600 2,150 Climbing Winnipeg Center
Tue 09:38:34 PM 50.3333 -104.6833 238° Southwest 240 276 6,800 2,550 Climbing Winnipeg Center
Tue 09:39:34 PM 50.3667 -104.8000 294° West 290 334 9,700 2,950 Climbing Winnipeg Center
Tue 09:40:34 PM 50.3667 -104.9333 270° West 300 345 12,700 3,150 Climbing Winnipeg Center
Tue 09:41:34 PM 50.4167 -105.0667 301° West 350 403 16,000 3,000 Climbing Winnipeg Center
Tue 09:42:00 PM 50.6363 -105.7253 285° West  Level FlightAware Approximate
Tue 09:42:34 PM 50.4333 -105.2333 279° West 360 414 18,700  Level Winnipeg Center
Tue 09:43:34 PM 50.4833 -105.3667 301° West 370 426 21,900 3,200 Climbing Winnipeg Center
Tue 09:44:34 PM 50.5000 -105.5333 279° West 390 449 25,100 3,000 Climbing Winnipeg Center
Tue 09:45:34 PM 50.5333 -105.7000 288° West 390 449 27,900 2,300 Climbing Winnipeg Center
Tue 09:46:34 PM 50.5500 -105.8833 278° West 400 460 29,700 1,800 Climbing Winnipeg Center
Tue 09:47:34 PM 50.6000 -106.0500 295° West 420 483 31,500 1,900 Climbing Winnipeg Center
Tue 09:48:34 PM 50.6333 -106.2500 285° West 430 495 33,500 1,850 Climbing Winnipeg Center
Tue 09:49:34 PM 50.6667 -106.4167 288° West 430 495 35,200 1,250 Climbing Winnipeg Center
Tue 09:50:34 PM 50.6833 -106.5667 280° West 430 495 36,000 400 Climbing Edmonton Center
Tue 09:51:34 PM 50.7167 -106.7500 286° West 430 495 36,000  Level Edmonton Center
Tue 09:52:34 PM 50.7500 -106.9667 284° West 430 495 36,000  Level Winnipeg Center
Tue 09:53:34 PM 50.7833 -107.1500 286° West 430 495 36,000  Level Winnipeg Center
Tue 09:54:34 PM 50.8167 -107.3167 288° West 430 495 36,000  Level Winnipeg Center
Tue 09:55:34 PM 50.8500 -107.5167 285° West 430 495 36,000  Level Winnipeg Center
Tue 09:56:34 PM 50.8667 -107.6833 279° West 430 495 36,000  Level Winnipeg Center
Tue 09:57:34 PM 50.9000 -107.8667 286° West 430 495 36,000  Level Winnipeg Center
Tue 09:58:34 PM 50.9333 -108.0667 285° West 440 506 36,000  Level Winnipeg Center
Tue 09:59:34 PM 50.9500 -108.2000 281° West 430 495 36,000  Level Edmonton Center
Tue 10:00:34 PM 51.0000 -108.4333 289° West 430 495 36,000  Level Winnipeg Center
Tue 10:01:34 PM 51.0333 -108.6333 285° West 430 495 36,000  Level Winnipeg Center
Tue 10:02:34 PM 51.0667 -108.8333 285° West 440 506 36,000  Level Winnipeg Center
Tue 10:03:34 PM 51.0833 -109.0000 279° West 430 495 36,000  Level Winnipeg Center
Tue 10:04:34 PM 51.1167 -109.1833 286° West 430 495 36,000  Level Winnipeg Center
Tue 10:05:34 PM 51.1500 -109.3667 286° West 440 506 36,000  Level Winnipeg Center
Tue 10:06:34 PM 51.1667 -109.5500 278° West 440 506 36,000  Level Winnipeg Center
Tue 10:07:34 PM 51.1833 -109.7333 278° West 430 495 36,000  Level Edmonton Center
Tue 10:08:34 PM 51.2333 -109.9500 290° West 440 506 36,000  Level Winnipeg Center
Tue 10:09:34 PM 51.2333 -110.1500 270° West 430 495 36,000  Level Winnipeg Center
Tue 10:10:34 PM 51.2500 -110.3333 278° West 430 495 36,000  Level Winnipeg Center
Tue 10:11:34 PM 51.2500 -110.5167 270° West 440 506 36,000  Level Winnipeg Center
Tue 10:12:34 PM 51.2500 -110.6833 270° West 430 495 36,000  Level Edmonton Center
Tue 10:13:34 PM 51.2500 -110.8667 270° West 430 495 36,000  Level Edmonton Center
Tue 10:14:34 PM 51.2500 -111.0667 270° West 430 495 36,000 -900 Level Edmonton Center
Tue 10:15:34 PM 51.2667 -111.2500 278° West 430 495 34,200 -1,950 Descending Edmonton Center
Tue 10:16:34 PM 51.2667 -111.4500 270° West 420 483 32,100 -2,100 Descending Edmonton Center
Tue 10:17:34 PM 51.2667 -111.6333 270° West 410 472 30,000 -2,000 Descending Edmonton Center
Tue 10:18:34 PM 51.2833 -111.8000 279° West 390 449 28,100 -1,950 Descending Edmonton Center
Tue 10:19:34 PM 51.2667 -111.9833 262° West 380 437 26,100 -1,900 Descending Edmonton Center
Tue 10:20:34 PM 51.2833 -112.1500 279° West 370 426 24,300 -1,800 Descending Edmonton Center
Tue 10:21:34 PM 51.2833 -112.2833 270° West 360 414 22,500 -1,800 Descending Edmonton Center
Tue 10:22:34 PM 51.2833 -112.4500 270° West 350 403 20,700 -1,750 Descending Edmonton Center
Tue 10:23:34 PM 51.2833 -112.6167 270° West 330 380 19,000 -1,700 Descending Edmonton Center
Tue 10:24:34 PM 51.2833 -112.7500 270° West 320 368 17,300 -1,700 Descending Edmonton Center
Tue 10:25:34 PM 51.2667 -112.8833 259° West 320 368 15,600 -1,650 Descending Edmonton Center
Tue 10:26:34 PM 51.2500 -113.0167 259° West 320 368 14,000 -1,700 Descending Edmonton Center
Tue 10:27:34 PM 51.2167 -113.1667 251° West 310 357 12,200 -1,000 Descending Edmonton Center
Tue 10:28:34 PM 51.2000 -113.2667 255° West 290 334 12,000 -350 Descending Edmonton Center
Tue 10:29:34 PM 51.1667 -113.4000 248° West 290 334 11,500 -500 Descending Edmonton Center
Tue 10:30:34 PM 51.1667 -113.5333 270° West 290 334 11,000 -500 Descending Edmonton Center
Tue 10:31:34 PM 51.1333 -113.6667 248° West 280 322 10,500 -500 Descending Edmonton Center
Tue 10:32:34 PM 51.1000 -113.7667 242° Southwest 280 322 10,000 -500 Descending Edmonton Center
Tue 10:33:34 PM 51.0500 -113.8667 232° Southwest 270 311 9,500 -650 Descending Edmonton Center
Tue 10:34:34 PM 50.9833 -113.9000 197° South 250 288 8,700 -1,200 Descending Edmonton Center
Tue 10:35:34 PM 50.9167 -113.9500 205° Southwest 240 276 7,100 -1,100 Descending Edmonton Center
Tue 10:36:34 PM 50.8667 -113.9833 203° Southwest 200 230 6,500 -450 Descending Edmonton Center
Tue 10:37:34 PM 50.9167 -114.0500 320° Northwest 200 230 6,200 -500 Descending Edmonton Center
Tue 10:38:34 PM 50.9667 -114.0333 12° North 180 207 5,500 -800 Descending Edmonton Center
Tue 10:39:34 PM 51.0167 -114.0500 348° North 160 184 4,600 -850 Descending Edmonton Center
Tue 10:40:34 PM 51.0500 -114.0500 360° North 130 150 3,800 -800 Descending Edmonton Center

Login

Don't have an account? Register now (free) for customized features, flight alerts, and more!